sensor_id;sensor_type;location;lat;lon;timestamp;P1;durP1;ratioP1;P2;durP2;ratioP2
51448;SDS011;37520;46.570;14.268;2022-07-10T00:03:04;2.13;;;0.80;;
51448;SDS011;37520;46.570;14.268;2022-07-10T00:13:06;1.27;;;0.60;;
51448;SDS011;37520;46.570;14.268;2022-07-10T00:23:07;1.70;;;0.70;;
51448;SDS011;37520;46.570;14.268;2022-07-10T00:33:09;2.97;;;0.75;;
51448;SDS011;37520;46.570;14.268;2022-07-10T00:43:10;2.25;;;0.82;;
51448;SDS011;37520;46.570;14.268;2022-07-10T00:53:12;3.40;;;0.90;;
51448;SDS011;37520;46.570;14.268;2022-07-10T01:03:14;2.97;;;0.80;;
51448;SDS011;37520;46.570;14.268;2022-07-10T01:13:16;2.15;;;0.80;;
51448;SDS011;37520;46.570;14.268;2022-07-10T01:23:17;2.15;;;0.70;;
51448;SDS011;37520;46.570;14.268;2022-07-10T01:33:19;2.28;;;0.68;;
51448;SDS011;37520;46.570;14.268;2022-07-10T01:43:20;2.67;;;0.82;;
51448;SDS011;37520;46.570;14.268;2022-07-10T01:53:21;3.40;;;0.82;;
51448;SDS011;37520;46.570;14.268;2022-07-10T02:03:22;2.72;;;0.85;;
51448;SDS011;37520;46.570;14.268;2022-07-10T02:13:43;1.65;;;0.60;;
51448;SDS011;37520;46.570;14.268;2022-07-10T02:23:44;2.38;;;0.85;;
51448;SDS011;37520;46.570;14.268;2022-07-10T02:33:45;2.42;;;1.17;;
51448;SDS011;37520;46.570;14.268;2022-07-10T02:43:46;3.20;;;0.80;;
51448;SDS011;37520;46.570;14.268;2022-07-10T02:53:47;1.83;;;0.65;;
51448;SDS011;37520;46.570;14.268;2022-07-10T03:03:49;3.50;;;0.85;;
51448;SDS011;37520;46.570;14.268;2022-07-10T03:13:50;2.70;;;0.90;;
51448;SDS011;37520;46.570;14.268;2022-07-10T03:23:51;1.85;;;0.73;;
51448;SDS011;37520;46.570;14.268;2022-07-10T03:33:52;1.63;;;0.70;;
51448;SDS011;37520;46.570;14.268;2022-07-10T03:43:54;2.65;;;0.77;;
51448;SDS011;37520;46.570;14.268;2022-07-10T03:53:56;2.00;;;0.90;;
51448;SDS011;37520;46.570;14.268;2022-07-10T04:03:57;3.47;;;0.88;;
51448;SDS011;37520;46.570;14.268;2022-07-10T04:13:58;2.58;;;0.90;;
51448;SDS011;37520;46.570;14.268;2022-07-10T04:23:59;3.58;;;1.02;;
51448;SDS011;37520;46.570;14.268;2022-07-10T04:34:00;3.05;;;1.00;;
51448;SDS011;37520;46.570;14.268;2022-07-10T04:44:02;3.40;;;1.10;;
51448;SDS011;37520;46.570;14.268;2022-07-10T04:54:03;2.67;;;1.00;;
51448;SDS011;37520;46.570;14.268;2022-07-10T05:04:05;2.67;;;1.10;;
51448;SDS011;37520;46.570;14.268;2022-07-10T05:14:06;2.65;;;1.08;;
51448;SDS011;37520;46.570;14.268;2022-07-10T05:24:08;2.65;;;1.00;;
51448;SDS011;37520;46.570;14.268;2022-07-10T05:34:09;3.15;;;1.05;;
51448;SDS011;37520;46.570;14.268;2022-07-10T05:44:10;3.50;;;1.10;;
51448;SDS011;37520;46.570;14.268;2022-07-10T05:54:11;2.65;;;1.23;;
51448;SDS011;37520;46.570;14.268;2022-07-10T06:04:13;3.35;;;1.30;;
51448;SDS011;37520;46.570;14.268;2022-07-10T06:14:14;3.38;;;1.23;;
51448;SDS011;37520;46.570;14.268;2022-07-10T06:24:17;1.88;;;0.95;;
51448;SDS011;37520;46.570;14.268;2022-07-10T06:34:18;2.65;;;1.10;;
51448;SDS011;37520;46.570;14.268;2022-07-10T06:44:20;3.05;;;1.38;;
51448;SDS011;37520;46.570;14.268;2022-07-10T06:54:22;3.10;;;1.30;;
51448;SDS011;37520;46.570;14.268;2022-07-10T07:04:24;3.85;;;1.30;;
51448;SDS011;37520;46.570;14.268;2022-07-10T07:14:26;4.72;;;1.30;;
51448;SDS011;37520;46.570;14.268;2022-07-10T07:24:29;3.13;;;1.17;;
51448;SDS011;37520;46.570;14.268;2022-07-10T07:34:30;4.68;;;1.70;;
51448;SDS011;37520;46.570;14.268;2022-07-10T07:44:32;2.97;;;1.50;;
51448;SDS011;37520;46.570;14.268;2022-07-10T07:54:33;3.95;;;1.30;;
51448;SDS011;37520;46.570;14.268;2022-07-10T08:04:34;3.10;;;1.25;;
51448;SDS011;37520;46.570;14.268;2022-07-10T08:14:36;4.47;;;1.20;;
51448;SDS011;37520;46.570;14.268;2022-07-10T08:24:38;3.20;;;1.15;;
51448;SDS011;37520;46.570;14.268;2022-07-10T08:34:40;4.22;;;1.85;;
51448;SDS011;37520;46.570;14.268;2022-07-10T08:44:41;2.25;;;0.95;;
51448;SDS011;37520;46.570;14.268;2022-07-10T08:54:42;3.60;;;1.30;;
51448;SDS011;37520;46.570;14.268;2022-07-10T09:04:44;1.88;;;0.90;;
51448;SDS011;37520;46.570;14.268;2022-07-10T09:14:46;2.25;;;0.90;;
51448;SDS011;37520;46.570;14.268;2022-07-10T09:24:47;2.83;;;0.85;;
51448;SDS011;37520;46.570;14.268;2022-07-10T09:34:50;2.00;;;1.00;;
51448;SDS011;37520;46.570;14.268;2022-07-10T09:45:13;2.42;;;1.13;;
51448;SDS011;37520;46.570;14.268;2022-07-10T09:55:21;2.10;;;0.80;;
51448;SDS011;37520;46.570;14.268;2022-07-10T10:05:35;1.50;;;0.60;;
51448;SDS011;37520;46.570;14.268;2022-07-10T10:15:45;2.17;;;0.90;;
51448;SDS011;37520;46.570;14.268;2022-07-10T10:25:49;1.70;;;0.60;;
51448;SDS011;37520;46.570;14.268;2022-07-10T10:35:51;1.83;;;0.60;;
51448;SDS011;37520;46.570;14.268;2022-07-10T10:45:53;1.90;;;0.70;;
51448;SDS011;37520;46.570;14.268;2022-07-10T10:56:39;2.65;;;0.57;;
51448;SDS011;37520;46.570;14.268;2022-07-10T11:06:19;2.08;;;0.60;;
51448;SDS011;37520;46.570;14.268;2022-07-10T11:16:47;1.38;;;0.57;;
51448;SDS011;37520;46.570;14.268;2022-07-10T11:26:51;1.50;;;0.50;;
51448;SDS011;37520;46.570;14.268;2022-07-10T11:37:13;1.95;;;0.63;;
51448;SDS011;37520;46.570;14.268;2022-07-10T11:47:15;1.77;;;0.60;;
51448;SDS011;37520;46.570;14.268;2022-07-10T11:57:16;1.55;;;0.63;;
51448;SDS011;37520;46.570;14.268;2022-07-10T12:07:19;3.50;;;1.05;;
51448;SDS011;37520;46.570;14.268;2022-07-10T12:17:21;2.22;;;0.70;;
51448;SDS011;37520;46.570;14.268;2022-07-10T12:27:41;2.35;;;0.93;;
51448;SDS011;37520;46.570;14.268;2022-07-10T12:37:48;1.58;;;0.60;;
51448;SDS011;37520;46.570;14.268;2022-07-10T12:47:50;1.97;;;0.80;;
51448;SDS011;37520;46.570;14.268;2022-07-10T12:57:58;1.38;;;0.70;;
51448;SDS011;37520;46.570;14.268;2022-07-10T13:18:23;2.05;;;0.73;;
51448;SDS011;37520;46.570;14.268;2022-07-10T13:28:25;2.00;;;0.80;;
51448;SDS011;37520;46.570;14.268;2022-07-10T13:38:27;1.60;;;0.60;;
51448;SDS011;37520;46.570;14.268;2022-07-10T13:48:28;2.65;;;0.70;;
51448;SDS011;37520;46.570;14.268;2022-07-10T13:58:31;2.40;;;0.90;;
51448;SDS011;37520;46.570;14.268;2022-07-10T14:08:33;2.13;;;0.95;;
51448;SDS011;37520;46.570;14.268;2022-07-10T14:18:34;2.92;;;0.95;;
51448;SDS011;37520;46.570;14.268;2022-07-10T14:28:37;2.35;;;0.90;;
51448;SDS011;37520;46.570;14.268;2022-07-10T14:38:39;2.08;;;0.95;;
51448;SDS011;37520;46.570;14.268;2022-07-10T14:48:40;3.25;;;1.30;;
51448;SDS011;37520;46.570;14.268;2022-07-10T14:58:42;2.50;;;0.93;;
51448;SDS011;37520;46.570;14.268;2022-07-10T15:08:44;2.53;;;1.00;;
51448;SDS011;37520;46.570;14.268;2022-07-10T15:18:53;3.15;;;1.30;;
51448;SDS011;37520;46.570;14.268;2022-07-10T15:28:54;2.10;;;1.00;;
51448;SDS011;37520;46.570;14.268;2022-07-10T15:38:56;1.77;;;0.90;;
51448;SDS011;37520;46.570;14.268;2022-07-10T15:48:58;1.98;;;0.90;;
51448;SDS011;37520;46.570;14.268;2022-07-10T15:59:00;2.25;;;1.00;;
51448;SDS011;37520;46.570;14.268;2022-07-10T16:09:01;1.52;;;0.80;;
51448;SDS011;37520;46.570;14.268;2022-07-10T16:19:03;2.15;;;1.00;;
51448;SDS011;37520;46.570;14.268;2022-07-10T16:29:08;2.90;;;1.10;;
51448;SDS011;37520;46.570;14.268;2022-07-10T16:39:09;2.55;;;0.90;;
51448;SDS011;37520;46.570;14.268;2022-07-10T16:49:11;1.98;;;0.90;;
51448;SDS011;37520;46.570;14.268;2022-07-10T16:59:13;2.53;;;1.20;;
51448;SDS011;37520;46.570;14.268;2022-07-10T17:09:14;3.08;;;0.98;;
51448;SDS011;37520;46.570;14.268;2022-07-10T17:19:15;2.15;;;1.00;;
51448;SDS011;37520;46.570;14.268;2022-07-10T17:29:17;4.03;;;1.38;;
51448;SDS011;37520;46.570;14.268;2022-07-10T17:39:18;3.78;;;1.10;;
51448;SDS011;37520;46.570;14.268;2022-07-10T17:49:19;3.60;;;1.13;;
51448;SDS011;37520;46.570;14.268;2022-07-10T17:59:21;2.33;;;1.10;;
51448;SDS011;37520;46.570;14.268;2022-07-10T18:09:22;3.28;;;1.92;;
51448;SDS011;37520;46.570;14.268;2022-07-10T18:19:23;3.45;;;1.80;;
51448;SDS011;37520;46.570;14.268;2022-07-10T18:29:25;2.40;;;1.30;;
51448;SDS011;37520;46.570;14.268;2022-07-10T18:39:26;2.60;;;1.20;;
51448;SDS011;37520;46.570;14.268;2022-07-10T18:49:28;5.40;;;1.50;;
51448;SDS011;37520;46.570;14.268;2022-07-10T18:59:29;2.63;;;1.20;;
51448;SDS011;37520;46.570;14.268;2022-07-10T19:09:31;2.53;;;1.17;;
51448;SDS011;37520;46.570;14.268;2022-07-10T19:19:32;2.40;;;1.10;;
51448;SDS011;37520;46.570;14.268;2022-07-10T19:29:33;2.10;;;1.13;;
51448;SDS011;37520;46.570;14.268;2022-07-10T19:39:36;2.92;;;1.10;;
51448;SDS011;37520;46.570;14.268;2022-07-10T19:49:37;2.42;;;1.10;;
51448;SDS011;37520;46.570;14.268;2022-07-10T19:59:39;2.75;;;1.27;;
51448;SDS011;37520;46.570;14.268;2022-07-10T20:09:40;2.95;;;1.13;;
51448;SDS011;37520;46.570;14.268;2022-07-10T20:19:42;2.75;;;1.20;;
51448;SDS011;37520;46.570;14.268;2022-07-10T20:29:43;3.38;;;1.20;;
51448;SDS011;37520;46.570;14.268;2022-07-10T20:39:44;2.55;;;1.10;;
51448;SDS011;37520;46.570;14.268;2022-07-10T20:49:46;2.35;;;1.13;;
51448;SDS011;37520;46.570;14.268;2022-07-10T20:59:47;2.72;;;1.20;;
51448;SDS011;37520;46.570;14.268;2022-07-10T21:09:48;3.45;;;1.15;;
51448;SDS011;37520;46.570;14.268;2022-07-10T21:19:50;3.60;;;1.20;;
51448;SDS011;37520;46.570;14.268;2022-07-10T21:29:51;2.42;;;1.20;;
51448;SDS011;37520;46.570;14.268;2022-07-10T21:39:53;2.67;;;1.13;;
51448;SDS011;37520;46.570;14.268;2022-07-10T21:49:54;2.28;;;1.00;;
51448;SDS011;37520;46.570;14.268;2022-07-10T21:59:55;2.45;;;0.98;;
51448;SDS011;37520;46.570;14.268;2022-07-10T22:09:57;2.80;;;1.00;;
51448;SDS011;37520;46.570;14.268;2022-07-10T22:19:58;2.95;;;1.00;;
51448;SDS011;37520;46.570;14.268;2022-07-10T22:30:00;3.13;;;1.10;;
51448;SDS011;37520;46.570;14.268;2022-07-10T22:40:01;3.83;;;1.35;;
51448;SDS011;37520;46.570;14.268;2022-07-10T22:50:03;3.40;;;1.08;;
51448;SDS011;37520;46.570;14.268;2022-07-10T23:00:04;3.15;;;1.15;;
51448;SDS011;37520;46.570;14.268;2022-07-10T23:10:06;3.03;;;1.10;;
51448;SDS011;37520;46.570;14.268;2022-07-10T23:20:08;5.18;;;1.20;;
51448;SDS011;37520;46.570;14.268;2022-07-10T23:30:10;4.05;;;1.20;;
51448;SDS011;37520;46.570;14.268;2022-07-10T23:40:11;2.47;;;1.00;;
51448;SDS011;37520;46.570;14.268;2022-07-10T23:50:13;2.50;;;1.23;;
